createdAt,value
2018-06-01T00:01:22.456Z,100810.88
2018-06-01T00:03:50.880Z,100810.84
2018-06-01T00:06:19.235Z,100817.18
2018-06-01T00:08:47.608Z,100813.16
2018-06-01T00:11:16.003Z,100812.02
2018-06-01T00:13:44.356Z,100808.48
2018-06-01T00:16:12.723Z,100809.53
2018-06-01T00:18:41.895Z,100811.33
2018-06-01T00:21:10.335Z,100804.98
2018-06-01T00:23:38.690Z,100803.02
2018-06-01T00:26:07.866Z,100802.25
2018-06-01T00:28:36.276Z,100808.36
2018-06-01T00:31:04.691Z,100812.27
2018-06-01T00:33:33.097Z,100808.58
2018-06-01T00:36:01.453Z,100802.77
2018-06-01T00:38:29.849Z,100796.22
2018-06-01T00:40:58.209Z,100804.53
2018-06-01T00:43:26.572Z,100801.38
2018-06-01T00:45:54.992Z,100796.87
2018-06-01T00:48:23.379Z,100800.77
2018-06-01T00:50:52.498Z,100805.81
2018-06-01T00:53:21.613Z,100798.67
2018-06-01T00:55:50.054Z,100803.25
2018-06-01T00:58:20.666Z,100806.52
2018-06-01T01:00:49.039Z,100810.97
2018-06-01T01:03:17.391Z,100814.27
2018-06-01T01:05:46.181Z,100806.40
2018-06-01T01:08:14.666Z,100806.36
2018-06-01T01:10:43.147Z,100802.74
2018-06-01T01:13:11.508Z,100811.02
2018-06-01T01:15:40.221Z,100814.92
2018-06-01T01:18:09.051Z,100814.44
2018-06-01T01:20:38.238Z,100813.80
2018-06-01T01:23:06.685Z,100811.03
2018-06-01T01:25:35.047Z,100813.40
2018-06-01T01:28:04.147Z,100810.34
2018-06-01T01:30:32.574Z,100818.42
2018-06-01T01:33:00.947Z,100828.79
2018-06-01T01:35:29.289Z,100838.02
2018-06-01T01:37:57.972Z,100836.17
2018-06-01T01:40:27.032Z,100836.70
2018-06-01T01:42:55.413Z,100838.33
2018-06-01T01:45:24.544Z,100839.25
2018-06-01T01:47:52.963Z,100844.91
2018-06-01T01:50:21.915Z,100843.45
2018-06-01T01:52:50.288Z,100845.66
2018-06-01T01:55:18.648Z,100854.00
2018-06-01T01:57:47.229Z,100856.52
2018-06-01T02:00:15.958Z,100853.25
2018-06-01T02:02:44.369Z,100850.37
2018-06-01T02:05:13.503Z,100863.94
2018-06-01T02:07:41.874Z,100865.34
2018-06-01T02:10:10.222Z,100857.89
2018-06-01T02:12:38.681Z,100866.55
2018-06-01T02:15:07.057Z,100869.86
2018-06-01T02:17:35.402Z,100856.17
2018-06-01T02:20:03.775Z,100852.41
2018-06-01T02:22:33.086Z,100857.97
2018-06-01T02:25:01.445Z,100854.28
2018-06-01T02:27:29.795Z,100855.84
2018-06-01T02:29:58.924Z,100859.97
2018-06-01T02:32:27.372Z,100861.03
2018-06-01T02:34:56.629Z,100860.97
2018-06-01T02:37:25.363Z,100864.88
2018-06-01T02:39:54.562Z,100866.68
2018-06-01T02:42:24.364Z,100862.66
2018-06-01T02:44:53.602Z,100863.73
2018-06-01T02:47:22.034Z,100861.78
2018-06-01T02:49:50.993Z,100866.94
2018-06-01T02:52:19.378Z,100864.28
2018-06-01T02:54:47.734Z,100861.58
2018-06-01T02:57:16.184Z,100870.64
2018-06-01T02:59:45.364Z,100868.58
2018-06-01T03:02:13.800Z,100869.41
2018-06-01T03:04:43.105Z,100871.48
2018-06-01T03:07:12.380Z,100868.02
2018-06-01T03:09:40.750Z,100874.89
2018-06-01T03:12:10.009Z,100873.19
2018-06-01T03:14:38.426Z,100867.29
2018-06-01T03:17:07.522Z,100863.79
2018-06-01T03:19:35.911Z,100865.73
2018-06-01T03:22:04.276Z,100865.30
2018-06-01T03:24:33.408Z,100863.92
2018-06-01T03:27:01.880Z,100861.83
2018-06-01T03:29:30.243Z,100867.47
2018-06-01T03:31:58.620Z,100865.62
2018-06-01T03:34:26.968Z,100866.54
2018-06-01T03:36:55.324Z,100871.72
2018-06-01T03:39:23.779Z,100873.22
2018-06-01T03:41:52.163Z,100870.08
2018-06-01T03:44:20.667Z,100865.64
2018-06-01T03:46:49.057Z,100861.95
2018-06-01T03:49:17.461Z,100867.87
2018-06-01T03:51:46.602Z,100868.83
2018-06-01T03:54:15.952Z,100874.30
2018-06-01T03:56:44.584Z,100870.78
2018-06-01T03:59:13.889Z,100873.45
2018-06-01T04:01:42.239Z,100875.13
2018-06-01T04:04:10.621Z,100879.62
2018-06-01T04:06:38.996Z,100878.98
2018-06-01T04:09:07.356Z,100876.36
2018-06-01T04:11:36.478Z,100875.21
2018-06-01T04:14:05.760Z,100877.97
2018-06-01T04:16:34.147Z,100869.73
2018-06-01T04:19:02.625Z,100872.00
2018-06-01T04:21:31.004Z,100869.84
2018-06-01T04:24:00.881Z,100869.66
2018-06-01T04:26:30.054Z,100870.77
2018-06-01T04:28:58.533Z,100869.05
2018-06-01T04:31:35.761Z,100869.35
2018-06-01T04:34:04.403Z,100865.72
2018-06-01T04:36:32.763Z,100864.08
2018-06-01T04:39:01.157Z,100865.33
2018-06-01T04:41:31.112Z,100863.73
2018-06-01T04:43:59.477Z,100868.25
2018-06-01T04:46:27.902Z,100871.53
2018-06-01T04:48:56.381Z,100871.53
2018-06-01T04:51:25.265Z,100875.85
2018-06-01T04:53:54.434Z,100866.77
2018-06-01T04:56:22.788Z,100871.42
2018-06-01T04:58:51.886Z,100867.36
2018-06-01T05:01:20.246Z,100865.61
2018-06-01T05:03:49.405Z,100871.37
2018-06-01T05:06:18.609Z,100863.41
2018-06-01T05:08:47.732Z,100863.39
2018-06-01T05:11:16.468Z,100859.81
2018-06-01T05:13:45.481Z,100855.98
2018-06-01T05:16:14.687Z,100857.74
2018-06-01T05:18:43.049Z,100854.76
2018-06-01T05:21:12.163Z,100855.39
2018-06-01T05:23:40.534Z,100851.86
2018-06-01T05:26:09.681Z,100848.05
2018-06-01T05:28:38.068Z,100844.52
2018-06-01T05:31:06.435Z,100846.31
2018-06-01T05:33:34.774Z,100844.08
2018-06-01T05:36:03.118Z,100842.84
2018-06-01T05:38:31.462Z,100847.41
2018-06-01T05:40:59.832Z,100846.36
2018-06-01T05:43:28.175Z,100853.80
2018-06-01T05:45:58.200Z,100856.32
2018-06-01T05:48:26.504Z,100852.61
2018-06-01T05:50:54.850Z,100853.39
2018-06-01T05:53:23.236Z,100854.88
2018-06-01T05:55:52.723Z,100861.27
2018-06-01T05:58:23.976Z,100862.22
2018-06-01T06:00:53.315Z,100873.20
2018-06-01T06:03:21.665Z,100875.75
2018-06-01T06:05:51.516Z,100878.37
2018-06-01T06:08:20.017Z,100880.31
2018-06-01T06:10:48.489Z,100882.08
2018-06-01T06:13:16.889Z,100875.41
2018-06-01T06:15:46.324Z,100880.64
2018-06-01T06:18:15.860Z,100882.56
2018-06-01T06:20:44.193Z,100891.94
2018-06-01T06:23:14.408Z,100894.67
2018-06-01T06:25:44.619Z,100904.50
2018-06-01T06:28:12.968Z,100899.41
2018-06-01T06:30:42.145Z,100898.31
2018-06-01T06:33:10.531Z,100894.52
2018-06-01T06:35:39.601Z,100894.98
2018-06-01T06:38:07.966Z,100895.06
2018-06-01T06:40:37.127Z,100892.60
2018-06-01T06:43:06.297Z,100891.95
2018-06-01T06:45:35.641Z,100895.38
2018-06-01T06:48:04.630Z,100894.48
2018-06-01T06:50:33.052Z,100896.33
2018-06-01T06:53:01.477Z,100895.81
2018-06-01T06:55:29.836Z,100897.89
2018-06-01T06:57:58.298Z,100895.03
2018-06-01T07:00:26.628Z,100890.22
2018-06-01T07:02:55.029Z,100890.72
2018-06-01T07:05:24.137Z,100888.70
2018-06-01T07:07:52.580Z,100883.67
2018-06-01T07:10:21.115Z,100881.89
2018-06-01T07:12:49.469Z,100884.21
2018-06-01T07:15:18.633Z,100891.39
2018-06-01T07:17:47.029Z,100885.45
2018-06-01T07:20:15.416Z,100903.88
2018-06-01T07:22:44.397Z,100912.97
2018-06-01T07:25:12.752Z,100917.39
2018-06-01T07:27:41.162Z,100922.92
2018-06-01T07:30:09.576Z,100920.53
2018-06-01T07:32:38.097Z,100916.62
2018-06-01T07:35:06.535Z,100913.88
2018-06-01T07:37:35.665Z,100913.77
2018-06-01T07:40:04.821Z,100916.55
2018-06-01T07:42:33.207Z,100924.02
2018-06-01T07:45:01.913Z,100930.89
2018-06-01T07:47:30.272Z,100929.91
2018-06-01T07:49:58.873Z,100919.58
2018-06-01T07:52:27.409Z,100912.69
2018-06-01T07:54:56.593Z,100910.78
2018-06-01T07:57:24.964Z,100907.84
2018-06-01T07:59:53.356Z,100916.17
2018-06-01T08:02:22.525Z,100919.72
2018-06-01T08:04:51.499Z,100921.43
2018-06-01T08:07:19.857Z,100929.02
2018-06-01T08:09:48.280Z,100920.00
2018-06-01T08:12:18.038Z,100920.93
2018-06-01T08:14:47.307Z,100925.23
2018-06-01T08:17:16.564Z,100928.55
2018-06-01T08:19:45.222Z,100930.73
2018-06-01T08:22:13.641Z,100928.49
2018-06-01T08:24:42.755Z,100932.30
2018-06-01T08:27:11.154Z,100929.53
2018-06-01T08:29:40.314Z,100923.03
2018-06-01T08:32:09.514Z,100924.06
2018-06-01T08:34:37.877Z,100923.67
2018-06-01T08:37:06.289Z,100927.51
2018-06-01T08:39:34.777Z,100921.92
2018-06-01T08:42:03.862Z,100922.45
2018-06-01T08:44:32.316Z,100927.42
2018-06-01T08:47:00.661Z,100933.39
2018-06-01T08:49:29.071Z,100935.83
2018-06-01T08:51:57.787Z,100939.27
2018-06-01T08:54:26.196Z,100938.52
2018-06-01T08:56:55.412Z,100939.08
2018-06-01T08:59:23.898Z,100943.86
2018-06-01T09:01:53.059Z,100946.84
2018-06-01T09:04:21.590Z,100949.91
2018-06-01T09:06:49.962Z,100943.89
2018-06-01T09:09:20.322Z,100938.51
2018-06-01T09:11:49.767Z,100946.14
2018-06-01T09:14:19.215Z,100944.80
2018-06-01T09:16:47.668Z,100952.98
2018-06-01T09:19:16.059Z,100960.01
2018-06-01T09:21:44.500Z,100961.65
2018-06-01T09:24:13.684Z,100957.05
2018-06-01T09:26:42.111Z,100960.44
2018-06-01T09:29:10.460Z,100967.09
2018-06-01T09:31:39.571Z,100967.91
2018-06-01T09:34:09.591Z,100966.68
2018-06-01T09:36:37.942Z,100964.74
2018-06-01T09:39:07.139Z,100962.92
2018-06-01T09:41:35.511Z,100957.62
2018-06-01T09:44:05.403Z,100948.20
2018-06-01T09:46:34.551Z,100950.72
2018-06-01T09:49:02.917Z,100960.83
2018-06-01T09:51:32.215Z,100965.83
2018-06-01T09:54:01.661Z,100970.47
2018-06-01T09:56:30.038Z,100978.72
2018-06-01T09:58:58.375Z,100981.28
2018-06-01T10:01:29.401Z,100986.73
2018-06-01T10:03:59.206Z,100983.44
2018-06-01T10:06:27.641Z,100987.90
2018-06-01T10:08:55.979Z,100991.19
2018-06-01T10:11:25.143Z,100981.66
2018-06-01T10:13:53.509Z,100977.33
2018-06-01T10:16:22.095Z,100968.11
2018-06-01T10:18:50.464Z,100970.13
2018-06-01T10:21:18.816Z,100964.12
2018-06-01T10:23:47.976Z,100965.98
2018-06-01T10:26:16.378Z,100968.80
2018-06-01T10:28:45.547Z,100976.43
2018-06-01T10:31:13.901Z,100979.09
2018-06-01T10:33:42.305Z,100976.03
2018-06-01T10:36:10.674Z,100971.94
2018-06-01T10:38:39.899Z,100980.30
2018-06-01T10:41:09.062Z,100974.85
2018-06-01T10:43:37.500Z,100984.69
2018-06-01T10:46:05.888Z,100971.33
2018-06-01T10:48:35.274Z,100972.87
2018-06-01T10:51:04.439Z,100976.45
2018-06-01T10:53:33.130Z,100992.23
2018-06-01T10:56:02.705Z,101004.25
2018-06-01T10:58:31.346Z,101003.55
2018-06-01T11:01:00.514Z,101007.09
2018-06-01T11:03:28.981Z,101007.84
2018-06-01T11:05:57.407Z,101011.14
2018-06-01T11:08:26.538Z,101008.27
2018-06-01T11:10:54.948Z,101011.92
2018-06-01T11:13:24.862Z,101014.88
2018-06-01T11:15:53.553Z,101016.78
2018-06-01T11:18:23.249Z,101022.72
2018-06-01T11:20:51.615Z,101025.81
2018-06-01T11:23:21.547Z,101030.81
2018-06-01T11:25:49.879Z,101037.63
2018-06-01T11:28:18.237Z,101038.95
2018-06-01T11:30:48.502Z,101045.52
2018-06-01T11:33:17.798Z,101048.02
2018-06-01T11:35:47.084Z,101036.19
2018-06-01T11:38:15.568Z,101036.41
2018-06-01T11:40:44.233Z,101035.59
2018-06-01T11:43:14.060Z,101029.95
2018-06-01T11:45:42.471Z,101030.45
2018-06-01T11:48:10.811Z,101029.09
2018-06-01T11:50:39.780Z,101019.28
2018-06-01T11:53:08.130Z,101018.22
2018-06-01T11:55:36.552Z,101010.01
2018-06-01T11:58:04.916Z,101014.56
2018-06-01T12:00:34.994Z,101021.84
2018-06-01T12:03:03.393Z,101021.33
2018-06-01T12:05:31.800Z,101012.59
2018-06-01T12:08:00.905Z,101006.10
2018-06-01T12:10:30.076Z,101002.38
2018-06-01T12:13:00.283Z,100992.64
2018-06-01T12:15:28.655Z,100999.77
2018-06-01T12:17:57.043Z,100993.06
2018-06-01T12:20:26.225Z,100979.00
2018-06-01T12:22:54.610Z,100977.94
2018-06-01T12:25:22.986Z,100968.02
2018-06-01T12:27:51.450Z,100964.43
2018-06-01T12:30:20.167Z,100955.91
2018-06-01T12:32:48.519Z,100953.28
2018-06-01T12:35:16.895Z,100949.41
2018-06-01T12:37:45.356Z,100939.97
2018-06-01T12:40:14.426Z,100928.22
2018-06-01T12:42:44.165Z,100925.66
2018-06-01T12:45:12.553Z,100916.52
2018-06-01T12:47:41.003Z,100909.93
2018-06-01T12:50:10.500Z,100902.91
2018-06-01T12:52:39.585Z,100890.91
2018-06-01T12:55:08.862Z,100884.70
2018-06-01T12:57:37.219Z,100881.25
2018-06-01T13:00:05.623Z,100881.78
2018-06-01T13:02:34.266Z,100882.41
2018-06-01T13:05:02.674Z,100880.17
2018-06-01T13:07:31.475Z,100876.52
2018-06-01T13:09:59.844Z,100875.38
2018-06-01T13:12:29.102Z,100877.27
2018-06-01T13:14:57.496Z,100870.59
2018-06-01T13:17:26.719Z,100868.74
2018-06-01T13:19:55.084Z,100870.80
2018-06-01T13:22:24.669Z,100868.63
2018-06-01T13:24:54.661Z,100871.65
2018-06-01T13:27:24.760Z,100870.73
2018-06-01T13:29:53.154Z,100874.00
2018-06-01T13:32:21.720Z,100874.63
2018-06-01T13:34:50.104Z,100876.09
2018-06-01T13:37:18.440Z,100871.05
2018-06-01T13:39:47.278Z,100871.05
2018-06-01T13:42:18.100Z,100868.44
2018-06-01T13:44:47.261Z,100865.20
2018-06-01T13:47:17.377Z,100859.00
2018-06-01T13:49:46.623Z,100863.20
2018-06-01T13:52:16.037Z,100863.41
2018-06-01T13:54:45.464Z,100874.52
2018-06-01T13:57:13.831Z,100898.92
2018-06-01T13:59:42.981Z,100907.84
2018-06-01T14:02:11.388Z,100916.54
2018-06-01T14:04:39.832Z,100923.95
2018-06-01T14:07:08.260Z,100929.25
2018-06-01T14:09:38.031Z,100924.63
2018-06-01T14:12:07.858Z,100932.20
2018-06-01T14:14:37.093Z,100933.47
2018-06-01T14:17:05.455Z,100937.34
2018-06-01T14:19:34.592Z,100938.45
2018-06-01T14:22:03.025Z,100944.41
2018-06-01T14:24:32.406Z,100945.98
2018-06-01T14:27:00.911Z,100954.45
2018-06-01T14:29:29.307Z,100955.59
2018-06-01T14:31:58.439Z,100957.05
2018-06-01T14:34:26.858Z,100965.08
2018-06-01T14:36:55.326Z,100969.23
2018-06-01T14:39:26.162Z,100966.75
2018-06-01T14:41:54.545Z,100965.22
2018-06-01T14:44:23.728Z,100967.64
2018-06-01T14:46:52.924Z,100967.55
2018-06-01T14:49:21.266Z,100969.47
2018-06-01T14:51:49.629Z,100956.91
2018-06-01T14:54:17.971Z,100959.97
2018-06-01T14:56:46.440Z,100950.05
2018-06-01T14:59:14.885Z,100947.14
2018-06-01T15:01:43.337Z,100940.16
2018-06-01T15:04:12.468Z,100939.93
2018-06-01T15:06:41.660Z,100930.76
2018-06-01T15:09:10.067Z,100925.05
2018-06-01T15:11:41.181Z,100927.59
2018-06-01T15:14:09.564Z,100920.46
2018-06-01T15:16:38.299Z,100915.61
2018-06-01T15:19:06.751Z,100909.00
2018-06-01T15:21:35.201Z,100905.89
2018-06-01T15:24:04.317Z,100899.94
2018-06-01T15:26:32.725Z,100893.81
2018-06-01T15:29:01.767Z,100893.38
2018-06-01T15:31:30.912Z,100890.31
2018-06-01T15:34:00.050Z,100885.39
2018-06-01T15:36:30.390Z,100880.51
2018-06-01T15:38:58.741Z,100882.67
2018-06-01T15:41:28.051Z,100889.91
2018-06-01T15:43:58.072Z,100894.22
2018-06-01T15:46:27.018Z,100902.30
2018-06-01T15:48:56.194Z,100896.48
2018-06-01T15:51:25.607Z,100901.17
2018-06-01T15:53:54.935Z,100899.14
2018-06-01T15:56:24.546Z,100892.99
2018-06-01T15:58:53.045Z,100890.44
2018-06-01T16:01:21.841Z,100889.54
2018-06-01T16:03:50.985Z,100887.80
2018-06-01T16:06:19.389Z,100887.21
2018-06-01T16:08:48.421Z,100882.50
2018-06-01T16:11:18.226Z,100889.42
2018-06-01T16:13:47.320Z,100894.02
2018-06-01T16:16:17.200Z,100898.16
2018-06-01T16:18:45.547Z,100902.31
2018-06-01T16:21:14.674Z,100904.28
2018-06-01T16:23:43.059Z,100903.18
2018-06-01T16:26:12.212Z,100904.90
2018-06-01T16:28:41.005Z,100906.00
2018-06-01T16:31:09.654Z,100909.88
2018-06-01T16:33:39.284Z,100912.75
2018-06-01T16:36:07.700Z,100921.94
2018-06-01T16:38:36.099Z,100927.12
2018-06-01T16:41:05.041Z,100937.23
2018-06-01T16:43:33.530Z,100936.34
2018-06-01T16:46:01.897Z,100935.78
2018-06-01T16:48:31.536Z,100937.93
2018-06-01T16:50:59.913Z,100931.74
2018-06-01T16:53:28.276Z,100925.17
2018-06-01T16:55:57.490Z,100922.14
2018-06-01T16:58:26.699Z,100919.97
2018-06-01T17:00:55.075Z,100911.77
2018-06-01T17:03:23.515Z,100918.06
2018-06-01T17:05:52.783Z,100916.42
2018-06-01T17:08:21.267Z,100907.97
2018-06-01T17:10:51.471Z,100914.67
2018-06-01T17:13:19.856Z,100908.73
2018-06-01T17:15:48.245Z,100902.31
2018-06-01T17:18:18.041Z,100906.13
2018-06-01T17:20:46.425Z,100905.36
2018-06-01T17:23:14.941Z,100902.64
2018-06-01T17:25:44.164Z,100905.41
2018-06-01T17:28:14.343Z,100909.48
2018-06-01T17:30:43.483Z,100905.03
2018-06-01T17:33:11.922Z,100901.06
2018-06-01T17:35:41.036Z,100895.81
2018-06-01T17:38:10.207Z,100893.89
2018-06-01T17:40:39.482Z,100901.91
2018-06-01T17:43:08.737Z,100900.26
2018-06-01T17:45:37.146Z,100899.78
2018-06-01T17:48:06.883Z,100900.22
2018-06-01T17:50:35.314Z,100895.66
2018-06-01T17:53:05.244Z,100898.25
2018-06-01T17:55:34.653Z,100897.05
2018-06-01T17:58:03.136Z,100890.06
2018-06-01T18:00:34.065Z,100897.22
2018-06-01T18:03:02.559Z,100891.45
2018-06-01T18:05:30.904Z,100890.22
2018-06-01T18:07:59.287Z,100884.86
2018-06-01T18:10:28.114Z,100893.77
2018-06-01T18:12:56.542Z,100902.78
2018-06-01T18:15:25.707Z,100898.98
2018-06-01T18:17:54.335Z,100897.19
2018-06-01T18:20:23.769Z,100893.05
2018-06-01T18:22:52.130Z,100896.12
2018-06-01T18:25:20.518Z,100892.38
2018-06-01T18:27:48.864Z,100897.82
2018-06-01T18:30:18.023Z,100893.69
2018-06-01T18:32:47.612Z,100894.61
2018-06-01T18:35:16.869Z,100893.54
2018-06-01T18:37:45.342Z,100895.55
2018-06-01T18:40:15.052Z,100893.12
2018-06-01T18:42:43.427Z,100912.32
2018-06-01T18:45:12.652Z,100905.24
2018-06-01T18:47:42.128Z,100918.78
2018-06-01T18:50:11.301Z,100918.17
2018-06-01T18:52:39.647Z,100918.09
2018-06-01T18:55:08.860Z,100920.45
2018-06-01T18:57:37.245Z,100920.72
2018-06-01T19:00:06.003Z,100919.91
2018-06-01T19:02:34.417Z,100917.94
2018-06-01T19:05:03.979Z,100915.34
2018-06-01T19:07:33.365Z,100916.65
2018-06-01T19:10:01.735Z,100919.78
2018-06-01T19:12:31.506Z,100917.06
2018-06-01T19:14:59.865Z,100918.49
2018-06-01T19:17:29.262Z,100921.53
2018-06-01T19:19:58.253Z,100912.34
2018-06-01T19:22:26.952Z,100913.08
2018-06-01T19:24:59.273Z,100906.05
2018-06-01T19:27:28.480Z,100905.69
2018-06-01T19:29:57.942Z,100907.08
2018-06-01T19:32:26.405Z,100904.10
2018-06-01T19:34:55.181Z,100904.78
2018-06-01T19:37:23.798Z,100908.12
2018-06-01T19:39:52.205Z,100908.75
2018-06-01T19:42:21.518Z,100908.30
2018-06-01T19:44:49.878Z,100918.13
2018-06-01T19:47:19.108Z,100915.44
2018-06-01T19:49:48.383Z,100917.08
2018-06-01T19:52:18.411Z,100910.26
2018-06-01T19:54:46.928Z,100908.20
2018-06-01T19:57:15.308Z,100907.77
2018-06-01T19:59:43.783Z,100909.52
2018-06-01T20:02:12.253Z,100915.83
2018-06-01T20:04:40.603Z,100916.79
2018-06-01T20:07:09.749Z,100918.87
2018-06-01T20:09:38.173Z,100927.07
2018-06-01T20:12:07.355Z,100925.41
2018-06-01T20:14:35.746Z,100930.72
2018-06-01T20:17:04.906Z,100933.03
2018-06-01T20:19:33.269Z,100937.67
2018-06-01T20:22:02.591Z,100942.70
2018-06-01T20:24:31.111Z,100946.44
2018-06-01T20:27:00.265Z,100947.38
2018-06-01T20:29:28.640Z,100956.08
2018-06-01T20:31:57.034Z,100960.08
2018-06-01T20:34:25.754Z,100963.33
2018-06-01T20:36:54.927Z,100972.61
2018-06-01T20:39:23.273Z,100971.40
2018-06-01T20:41:51.654Z,100971.69
2018-06-01T20:44:20.235Z,100975.14
2018-06-01T20:46:49.616Z,100975.53
2018-06-01T20:49:17.965Z,100978.97
2018-06-01T20:51:47.125Z,100974.52
2018-06-01T20:54:15.512Z,100973.40
2018-06-01T20:56:44.943Z,100974.44
2018-06-01T20:59:13.508Z,100965.33
2018-06-01T21:01:41.965Z,100963.84
2018-06-01T21:04:11.134Z,100963.48
2018-06-01T21:06:39.942Z,100959.06
2018-06-01T21:09:09.368Z,100968.05
2018-06-01T21:11:37.774Z,100959.84
2018-06-01T21:14:06.958Z,100963.13
2018-06-01T21:16:36.898Z,100972.16
2018-06-01T21:19:05.285Z,100970.38
2018-06-01T21:21:33.748Z,100971.86
2018-06-01T21:24:03.014Z,100975.53
2018-06-01T21:26:31.403Z,100977.37
2018-06-01T21:29:00.073Z,100977.04
2018-06-01T21:31:29.887Z,100976.68
2018-06-01T21:33:58.631Z,100983.11
2018-06-01T21:36:28.363Z,100979.11
2018-06-01T21:38:56.792Z,100976.84
2018-06-01T21:41:25.269Z,100973.30
2018-06-01T21:43:54.411Z,100970.08
2018-06-01T21:46:22.818Z,100976.44
2018-06-01T21:48:51.205Z,100983.70
2018-06-01T21:51:19.780Z,100980.84
2018-06-01T21:53:48.243Z,100983.53
2018-06-01T21:56:16.604Z,100979.08
2018-06-01T21:58:45.079Z,100977.47
2018-06-01T22:01:13.495Z,100970.74
2018-06-01T22:03:41.881Z,100970.22
2018-06-01T22:06:10.607Z,100969.53
2018-06-01T22:08:41.143Z,100967.79
2018-06-01T22:11:10.301Z,100962.97
2018-06-01T22:13:38.680Z,100964.12
2018-06-01T22:16:07.965Z,100972.05
2018-06-01T22:18:36.367Z,100968.71
2018-06-01T22:21:04.725Z,100965.98
2018-06-01T22:23:33.965Z,100965.27
2018-06-01T22:26:03.597Z,100967.78
2018-06-01T22:28:33.400Z,100966.01
2018-06-01T22:31:01.810Z,100961.72
2018-06-01T22:33:30.222Z,100957.52
2018-06-01T22:35:58.678Z,100952.80
2018-06-01T22:38:27.169Z,100950.98
2018-06-01T22:40:55.655Z,100948.13
2018-06-01T22:43:24.056Z,100951.30
2018-06-01T22:45:52.417Z,100941.00
2018-06-01T22:48:20.776Z,100938.48
2018-06-01T22:50:49.416Z,100935.37
2018-06-01T22:53:19.080Z,100945.91
2018-06-01T22:55:48.227Z,100945.52
2018-06-01T22:58:18.483Z,100942.27
2018-06-01T23:00:46.854Z,100943.86
2018-06-01T23:03:15.204Z,100940.38
2018-06-01T23:05:44.305Z,100933.28
2018-06-01T23:08:13.741Z,100938.66
2018-06-01T23:10:42.143Z,100929.97
2018-06-01T23:13:10.497Z,100934.17
2018-06-01T23:15:38.867Z,100931.55
2018-06-01T23:18:07.561Z,100935.63
2018-06-01T23:20:35.927Z,100932.20
2018-06-01T23:23:05.133Z,100938.63
2018-06-01T23:25:33.544Z,100938.49
2018-06-01T23:28:03.564Z,100929.85
2018-06-01T23:30:32.014Z,100927.47
2018-06-01T23:33:02.970Z,100921.97
2018-06-01T23:35:31.535Z,100921.92
2018-06-01T23:38:01.096Z,100919.10
2018-06-01T23:40:31.228Z,100914.97
2018-06-01T23:43:00.268Z,100913.62
2018-06-01T23:45:29.257Z,100916.86
2018-06-01T23:47:57.684Z,100915.79
2018-06-01T23:50:30.285Z,100915.10
2018-06-01T23:53:01.275Z,100911.45
2018-06-01T23:55:30.721Z,100919.51
2018-06-01T23:57:59.896Z,100925.91
